sensor_id;sensor_type;location;lat;lon;timestamp;P1;durP1;ratioP1;P2;durP2;ratioP2
75429;SDS011;64127;51.488;5.462;2023-02-15T00:02:19;32.73;;;25.80;;
75429;SDS011;64127;51.488;5.462;2023-02-15T00:04:52;31.40;;;24.57;;
75429;SDS011;64127;51.488;5.462;2023-02-15T00:07:24;32.30;;;25.90;;
75429;SDS011;64127;51.488;5.462;2023-02-15T00:09:56;30.77;;;24.83;;
75429;SDS011;64127;51.488;5.462;2023-02-15T00:12:28;34.00;;;25.47;;
75429;SDS011;64127;51.488;5.462;2023-02-15T00:15:00;32.33;;;25.07;;
75429;SDS011;64127;51.488;5.462;2023-02-15T00:17:32;31.87;;;24.50;;
75429;SDS011;64127;51.488;5.462;2023-02-15T00:20:04;31.47;;;24.63;;
75429;SDS011;64127;51.488;5.462;2023-02-15T00:22:37;29.40;;;24.53;;
75429;SDS011;64127;51.488;5.462;2023-02-15T00:25:09;30.67;;;25.40;;
75429;SDS011;64127;51.488;5.462;2023-02-15T00:27:41;28.80;;;23.97;;
75429;SDS011;64127;51.488;5.462;2023-02-15T00:30:13;32.30;;;23.60;;
75429;SDS011;64127;51.488;5.462;2023-02-15T00:32:47;29.77;;;24.37;;
75429;SDS011;64127;51.488;5.462;2023-02-15T00:35:19;30.13;;;23.83;;
75429;SDS011;64127;51.488;5.462;2023-02-15T00:37:51;29.87;;;24.07;;
75429;SDS011;64127;51.488;5.462;2023-02-15T00:40:23;29.63;;;23.97;;
75429;SDS011;64127;51.488;5.462;2023-02-15T00:42:55;28.80;;;22.77;;
75429;SDS011;64127;51.488;5.462;2023-02-15T00:45:27;28.00;;;22.40;;
75429;SDS011;64127;51.488;5.462;2023-02-15T00:47:59;29.23;;;23.63;;
75429;SDS011;64127;51.488;5.462;2023-02-15T00:50:31;27.33;;;22.33;;
75429;SDS011;64127;51.488;5.462;2023-02-15T00:53:03;26.53;;;21.90;;
75429;SDS011;64127;51.488;5.462;2023-02-15T00:55:36;27.83;;;22.53;;
75429;SDS011;64127;51.488;5.462;2023-02-15T00:58:08;31.73;;;22.80;;
75429;SDS011;64127;51.488;5.462;2023-02-15T01:00:42;29.27;;;22.37;;
75429;SDS011;64127;51.488;5.462;2023-02-15T01:03:17;32.33;;;22.53;;
75429;SDS011;64127;51.488;5.462;2023-02-15T01:05:51;28.23;;;21.47;;
75429;SDS011;64127;51.488;5.462;2023-02-15T01:08:23;27.07;;;22.27;;
75429;SDS011;64127;51.488;5.462;2023-02-15T01:10:55;25.83;;;21.13;;
75429;SDS011;64127;51.488;5.462;2023-02-15T01:13:27;30.37;;;21.87;;
75429;SDS011;64127;51.488;5.462;2023-02-15T01:15:59;29.03;;;21.27;;
75429;SDS011;64127;51.488;5.462;2023-02-15T01:18:32;28.00;;;21.33;;
75429;SDS011;64127;51.488;5.462;2023-02-15T01:21:09;25.70;;;21.50;;
75429;SDS011;64127;51.488;5.462;2023-02-15T01:23:45;25.73;;;21.07;;
75429;SDS011;64127;51.488;5.462;2023-02-15T01:26:17;26.97;;;20.20;;
75429;SDS011;64127;51.488;5.462;2023-02-15T01:28:49;26.33;;;20.87;;
75429;SDS011;64127;51.488;5.462;2023-02-15T01:31:21;27.53;;;20.20;;
75429;SDS011;64127;51.488;5.462;2023-02-15T01:33:54;24.77;;;20.30;;
75429;SDS011;64127;51.488;5.462;2023-02-15T01:36:26;26.03;;;20.87;;
75429;SDS011;64127;51.488;5.462;2023-02-15T01:38:57;26.00;;;21.13;;
75429;SDS011;64127;51.488;5.462;2023-02-15T01:41:29;25.07;;;19.97;;
75429;SDS011;64127;51.488;5.462;2023-02-15T01:44:03;27.37;;;20.93;;
75429;SDS011;64127;51.488;5.462;2023-02-15T01:53:44;24.53;;;19.07;;
75429;SDS011;64127;51.488;5.462;2023-02-15T01:56:28;22.40;;;18.43;;
75429;SDS011;64127;51.488;5.462;2023-02-15T01:59:06;22.40;;;18.57;;
75429;SDS011;64127;51.488;5.462;2023-02-15T02:01:46;26.37;;;19.43;;
75429;SDS011;64127;51.488;5.462;2023-02-15T02:07:01;23.93;;;19.07;;
75429;SDS011;64127;51.488;5.462;2023-02-15T02:09:39;23.33;;;19.00;;
75429;SDS011;64127;51.488;5.462;2023-02-15T02:12:11;26.23;;;20.00;;
75429;SDS011;64127;51.488;5.462;2023-02-15T02:14:45;22.47;;;18.97;;
75429;SDS011;64127;51.488;5.462;2023-02-15T02:17:29;24.23;;;18.53;;
75429;SDS011;64127;51.488;5.462;2023-02-15T02:20:17;27.27;;;18.33;;
75429;SDS011;64127;51.488;5.462;2023-02-15T02:23:40;22.70;;;17.37;;
75429;SDS011;64127;51.488;5.462;2023-02-15T02:29:48;21.43;;;17.80;;
75429;SDS011;64127;51.488;5.462;2023-02-15T02:32:54;20.40;;;17.60;;
75429;SDS011;64127;51.488;5.462;2023-02-15T02:42:30;22.20;;;17.77;;
75429;SDS011;64127;51.488;5.462;2023-02-15T02:45:16;21.97;;;18.07;;
75429;SDS011;64127;51.488;5.462;2023-02-15T02:48:23;21.43;;;17.67;;
75429;SDS011;64127;51.488;5.462;2023-02-15T02:51:00;26.93;;;18.20;;
75429;SDS011;64127;51.488;5.462;2023-02-15T02:53:32;22.43;;;18.13;;
75429;SDS011;64127;51.488;5.462;2023-02-15T02:56:09;24.70;;;18.30;;
75429;SDS011;64127;51.488;5.462;2023-02-15T02:58:58;23.03;;;17.83;;
75429;SDS011;64127;51.488;5.462;2023-02-15T03:02:17;21.90;;;17.73;;
75429;SDS011;64127;51.488;5.462;2023-02-15T03:05:12;22.93;;;18.17;;
75429;SDS011;64127;51.488;5.462;2023-02-15T03:07:52;23.57;;;17.70;;
75429;SDS011;64127;51.488;5.462;2023-02-15T03:10:28;25.20;;;17.73;;
75429;SDS011;64127;51.488;5.462;2023-02-15T03:13:00;24.27;;;17.87;;
75429;SDS011;64127;51.488;5.462;2023-02-15T03:15:34;21.33;;;18.17;;
75429;SDS011;64127;51.488;5.462;2023-02-15T03:18:33;23.43;;;17.67;;
75429;SDS011;64127;51.488;5.462;2023-02-15T03:21:13;21.43;;;16.70;;
75429;SDS011;64127;51.488;5.462;2023-02-15T03:23:54;24.03;;;17.17;;
75429;SDS011;64127;51.488;5.462;2023-02-15T03:26:37;21.53;;;17.80;;
75429;SDS011;64127;51.488;5.462;2023-02-15T03:29:13;21.80;;;18.53;;
75429;SDS011;64127;51.488;5.462;2023-02-15T03:31:50;23.10;;;18.07;;
75429;SDS011;64127;51.488;5.462;2023-02-15T03:34:30;21.00;;;17.03;;
75429;SDS011;64127;51.488;5.462;2023-02-15T03:45:51;22.70;;;17.80;;
75429;SDS011;64127;51.488;5.462;2023-02-15T03:48:32;21.63;;;16.83;;
75429;SDS011;64127;51.488;5.462;2023-02-15T03:51:13;22.93;;;16.37;;
75429;SDS011;64127;51.488;5.462;2023-02-15T03:54:07;21.00;;;16.77;;
75429;SDS011;64127;51.488;5.462;2023-02-15T03:57:17;20.83;;;16.03;;
75429;SDS011;64127;51.488;5.462;2023-02-15T04:05:46;19.80;;;16.23;;
75429;SDS011;64127;51.488;5.462;2023-02-15T04:08:18;20.67;;;16.53;;
75429;SDS011;64127;51.488;5.462;2023-02-15T04:10:50;20.93;;;16.73;;
75429;SDS011;64127;51.488;5.462;2023-02-15T04:13:31;21.30;;;16.23;;
75429;SDS011;64127;51.488;5.462;2023-02-15T04:16:05;18.57;;;15.53;;
75429;SDS011;64127;51.488;5.462;2023-02-15T04:18:39;21.43;;;16.73;;
75429;SDS011;64127;51.488;5.462;2023-02-15T04:21:32;21.00;;;15.90;;
75429;SDS011;64127;51.488;5.462;2023-02-15T04:24:23;18.67;;;15.27;;
75429;SDS011;64127;51.488;5.462;2023-02-15T04:27:13;21.57;;;15.07;;
75429;SDS011;64127;51.488;5.462;2023-02-15T04:29:47;19.13;;;15.90;;
75429;SDS011;64127;51.488;5.462;2023-02-15T04:32:21;19.43;;;16.00;;
75429;SDS011;64127;51.488;5.462;2023-02-15T04:34:53;19.67;;;16.50;;
75429;SDS011;64127;51.488;5.462;2023-02-15T04:37:25;20.77;;;16.60;;
75429;SDS011;64127;51.488;5.462;2023-02-15T04:39:57;19.43;;;15.70;;
75429;SDS011;64127;51.488;5.462;2023-02-15T04:42:29;18.77;;;16.10;;
75429;SDS011;64127;51.488;5.462;2023-02-15T04:45:02;20.10;;;15.57;;
75429;SDS011;64127;51.488;5.462;2023-02-15T04:47:34;19.83;;;16.13;;
75429;SDS011;64127;51.488;5.462;2023-02-15T04:50:06;19.73;;;15.83;;
75429;SDS011;64127;51.488;5.462;2023-02-15T04:52:39;21.50;;;16.27;;
75429;SDS011;64127;51.488;5.462;2023-02-15T04:55:11;19.03;;;15.40;;
75429;SDS011;64127;51.488;5.462;2023-02-15T04:57:43;21.17;;;15.80;;
75429;SDS011;64127;51.488;5.462;2023-02-15T05:00:15;22.43;;;16.37;;
75429;SDS011;64127;51.488;5.462;2023-02-15T05:02:47;21.13;;;15.93;;
75429;SDS011;64127;51.488;5.462;2023-02-15T05:05:19;21.10;;;15.47;;
75429;SDS011;64127;51.488;5.462;2023-02-15T05:07:51;20.03;;;15.43;;
75429;SDS011;64127;51.488;5.462;2023-02-15T05:10:23;20.30;;;16.30;;
75429;SDS011;64127;51.488;5.462;2023-02-15T05:12:55;18.93;;;15.67;;
75429;SDS011;64127;51.488;5.462;2023-02-15T05:15:27;20.50;;;16.67;;
75429;SDS011;64127;51.488;5.462;2023-02-15T05:17:59;20.80;;;15.73;;
75429;SDS011;64127;51.488;5.462;2023-02-15T05:20:32;19.73;;;15.60;;
75429;SDS011;64127;51.488;5.462;2023-02-15T05:23:05;24.80;;;16.50;;
75429;SDS011;64127;51.488;5.462;2023-02-15T05:25:36;21.77;;;16.80;;
75429;SDS011;64127;51.488;5.462;2023-02-15T05:28:27;22.43;;;17.13;;
75429;SDS011;64127;51.488;5.462;2023-02-15T05:33:49;20.80;;;16.43;;
75429;SDS011;64127;51.488;5.462;2023-02-15T05:36:21;22.37;;;17.60;;
75429;SDS011;64127;51.488;5.462;2023-02-15T05:38:53;19.67;;;16.33;;
75429;SDS011;64127;51.488;5.462;2023-02-15T05:41:26;24.70;;;17.03;;
75429;SDS011;64127;51.488;5.462;2023-02-15T05:43:58;21.53;;;17.30;;
75429;SDS011;64127;51.488;5.462;2023-02-15T05:46:29;23.77;;;17.67;;
75429;SDS011;64127;51.488;5.462;2023-02-15T05:49:02;22.37;;;16.83;;
75429;SDS011;64127;51.488;5.462;2023-02-15T05:51:34;22.37;;;17.87;;
75429;SDS011;64127;51.488;5.462;2023-02-15T05:54:06;20.63;;;16.87;;
75429;SDS011;64127;51.488;5.462;2023-02-15T05:56:38;21.53;;;16.83;;
75429;SDS011;64127;51.488;5.462;2023-02-15T05:59:10;21.33;;;17.10;;
75429;SDS011;64127;51.488;5.462;2023-02-15T06:01:42;21.30;;;17.53;;
75429;SDS011;64127;51.488;5.462;2023-02-15T06:04:14;21.53;;;18.20;;
75429;SDS011;64127;51.488;5.462;2023-02-15T06:06:46;24.43;;;18.43;;
75429;SDS011;64127;51.488;5.462;2023-02-15T06:09:18;21.93;;;17.93;;
75429;SDS011;64127;51.488;5.462;2023-02-15T06:11:51;21.20;;;17.83;;
75429;SDS011;64127;51.488;5.462;2023-02-15T06:14:22;21.80;;;17.47;;
75429;SDS011;64127;51.488;5.462;2023-02-15T06:16:54;25.17;;;18.20;;
75429;SDS011;64127;51.488;5.462;2023-02-15T06:19:26;23.37;;;18.10;;
75429;SDS011;64127;51.488;5.462;2023-02-15T06:21:58;22.87;;;17.97;;
75429;SDS011;64127;51.488;5.462;2023-02-15T06:24:30;25.07;;;18.83;;
75429;SDS011;64127;51.488;5.462;2023-02-15T06:27:03;23.20;;;18.43;;
75429;SDS011;64127;51.488;5.462;2023-02-15T06:29:35;23.67;;;17.67;;
75429;SDS011;64127;51.488;5.462;2023-02-15T06:32:07;23.63;;;18.07;;
75429;SDS011;64127;51.488;5.462;2023-02-15T06:34:39;21.57;;;17.37;;
75429;SDS011;64127;51.488;5.462;2023-02-15T06:37:11;25.47;;;18.70;;
75429;SDS011;64127;51.488;5.462;2023-02-15T06:39:43;23.83;;;19.50;;
75429;SDS011;64127;51.488;5.462;2023-02-15T06:42:15;23.87;;;17.63;;
75429;SDS011;64127;51.488;5.462;2023-02-15T06:44:49;22.47;;;17.60;;
75429;SDS011;64127;51.488;5.462;2023-02-15T06:47:21;23.07;;;17.87;;
75429;SDS011;64127;51.488;5.462;2023-02-15T06:49:53;22.80;;;17.93;;
75429;SDS011;64127;51.488;5.462;2023-02-15T06:52:25;24.77;;;18.37;;
75429;SDS011;64127;51.488;5.462;2023-02-15T06:54:57;23.70;;;18.43;;
75429;SDS011;64127;51.488;5.462;2023-02-15T06:57:29;24.73;;;18.63;;
75429;SDS011;64127;51.488;5.462;2023-02-15T07:00:01;23.53;;;18.73;;
75429;SDS011;64127;51.488;5.462;2023-02-15T07:02:36;23.03;;;18.27;;
75429;SDS011;64127;51.488;5.462;2023-02-15T07:05:07;23.70;;;18.80;;
75429;SDS011;64127;51.488;5.462;2023-02-15T07:07:40;24.50;;;19.00;;
75429;SDS011;64127;51.488;5.462;2023-02-15T07:10:12;24.53;;;18.60;;
75429;SDS011;64127;51.488;5.462;2023-02-15T07:12:44;25.87;;;19.33;;
75429;SDS011;64127;51.488;5.462;2023-02-15T07:15:17;24.07;;;19.50;;
75429;SDS011;64127;51.488;5.462;2023-02-15T07:17:52;24.10;;;18.40;;
75429;SDS011;64127;51.488;5.462;2023-02-15T07:20:24;24.20;;;18.60;;
75429;SDS011;64127;51.488;5.462;2023-02-15T07:22:56;25.30;;;19.47;;
75429;SDS011;64127;51.488;5.462;2023-02-15T07:25:28;23.73;;;18.67;;
75429;SDS011;64127;51.488;5.462;2023-02-15T07:28:01;23.60;;;19.27;;
75429;SDS011;64127;51.488;5.462;2023-02-15T07:30:38;23.53;;;19.13;;
75429;SDS011;64127;51.488;5.462;2023-02-15T07:33:11;23.70;;;19.47;;
75429;SDS011;64127;51.488;5.462;2023-02-15T07:35:56;23.70;;;18.90;;
75429;SDS011;64127;51.488;5.462;2023-02-15T07:38:33;21.37;;;19.00;;
75429;SDS011;64127;51.488;5.462;2023-02-15T07:41:11;25.33;;;19.37;;
75429;SDS011;64127;51.488;5.462;2023-02-15T07:43:45;26.03;;;19.67;;
75429;SDS011;64127;51.488;5.462;2023-02-15T07:46:17;24.57;;;19.67;;
75429;SDS011;64127;51.488;5.462;2023-02-15T07:48:51;24.30;;;19.33;;
75429;SDS011;64127;51.488;5.462;2023-02-15T07:51:23;25.70;;;19.63;;
75429;SDS011;64127;51.488;5.462;2023-02-15T07:53:55;26.73;;;20.40;;
75429;SDS011;64127;51.488;5.462;2023-02-15T07:56:27;25.33;;;19.97;;
75429;SDS011;64127;51.488;5.462;2023-02-15T07:58:59;24.00;;;19.60;;
75429;SDS011;64127;51.488;5.462;2023-02-15T08:01:35;25.77;;;20.53;;
75429;SDS011;64127;51.488;5.462;2023-02-15T08:04:09;26.10;;;20.57;;
75429;SDS011;64127;51.488;5.462;2023-02-15T08:06:42;27.03;;;21.17;;
75429;SDS011;64127;51.488;5.462;2023-02-15T08:09:14;23.97;;;19.87;;
75429;SDS011;64127;51.488;5.462;2023-02-15T08:11:46;28.37;;;21.13;;
75429;SDS011;64127;51.488;5.462;2023-02-15T08:14:19;27.23;;;21.17;;
75429;SDS011;64127;51.488;5.462;2023-02-15T08:16:53;23.57;;;20.27;;
75429;SDS011;64127;51.488;5.462;2023-02-15T08:19:31;23.90;;;20.17;;
75429;SDS011;64127;51.488;5.462;2023-02-15T08:22:04;24.40;;;20.47;;
75429;SDS011;64127;51.488;5.462;2023-02-15T08:24:38;27.13;;;21.30;;
75429;SDS011;64127;51.488;5.462;2023-02-15T08:27:12;24.50;;;20.20;;
75429;SDS011;64127;51.488;5.462;2023-02-15T08:29:44;28.67;;;21.70;;
75429;SDS011;64127;51.488;5.462;2023-02-15T08:32:16;26.30;;;21.17;;
75429;SDS011;64127;51.488;5.462;2023-02-15T08:34:49;29.80;;;21.07;;
75429;SDS011;64127;51.488;5.462;2023-02-15T08:37:21;26.70;;;21.67;;
75429;SDS011;64127;51.488;5.462;2023-02-15T08:39:52;25.87;;;21.20;;
75429;SDS011;64127;51.488;5.462;2023-02-15T08:42:24;28.77;;;21.03;;
75429;SDS011;64127;51.488;5.462;2023-02-15T08:44:56;26.83;;;21.20;;
75429;SDS011;64127;51.488;5.462;2023-02-15T08:47:28;26.60;;;21.67;;
75429;SDS011;64127;51.488;5.462;2023-02-15T08:50:00;29.60;;;21.60;;
75429;SDS011;64127;51.488;5.462;2023-02-15T08:52:32;27.33;;;21.83;;
75429;SDS011;64127;51.488;5.462;2023-02-15T08:55:04;25.20;;;21.33;;
75429;SDS011;64127;51.488;5.462;2023-02-15T08:57:37;26.20;;;21.30;;
75429;SDS011;64127;51.488;5.462;2023-02-15T09:00:09;26.20;;;21.03;;
75429;SDS011;64127;51.488;5.462;2023-02-15T09:02:43;27.33;;;21.43;;
75429;SDS011;64127;51.488;5.462;2023-02-15T09:05:15;27.13;;;21.47;;
75429;SDS011;64127;51.488;5.462;2023-02-15T09:07:46;28.37;;;21.90;;
75429;SDS011;64127;51.488;5.462;2023-02-15T09:10:18;26.53;;;21.00;;
75429;SDS011;64127;51.488;5.462;2023-02-15T09:12:51;25.47;;;20.87;;
75429;SDS011;64127;51.488;5.462;2023-02-15T09:15:23;25.60;;;21.57;;
75429;SDS011;64127;51.488;5.462;2023-02-15T09:17:55;28.50;;;21.33;;
75429;SDS011;64127;51.488;5.462;2023-02-15T09:20:30;27.50;;;21.93;;
75429;SDS011;64127;51.488;5.462;2023-02-15T09:23:02;26.50;;;22.77;;
75429;SDS011;64127;51.488;5.462;2023-02-15T09:25:34;26.00;;;21.70;;
75429;SDS011;64127;51.488;5.462;2023-02-15T09:28:06;25.10;;;21.47;;
75429;SDS011;64127;51.488;5.462;2023-02-15T09:30:41;26.97;;;22.57;;
75429;SDS011;64127;51.488;5.462;2023-02-15T09:33:13;27.80;;;22.40;;
75429;SDS011;64127;51.488;5.462;2023-02-15T09:35:45;27.70;;;22.20;;
75429;SDS011;64127;51.488;5.462;2023-02-15T09:38:17;26.23;;;21.63;;
75429;SDS011;64127;51.488;5.462;2023-02-15T09:40:52;27.27;;;22.13;;
75429;SDS011;64127;51.488;5.462;2023-02-15T09:44:07;27.13;;;21.50;;
75429;SDS011;64127;51.488;5.462;2023-02-15T10:01:53;26.07;;;21.17;;
75429;SDS011;64127;51.488;5.462;2023-02-15T10:07:45;27.30;;;21.50;;
75429;SDS011;64127;51.488;5.462;2023-02-15T10:14:15;25.13;;;21.37;;
75429;SDS011;64127;51.488;5.462;2023-02-15T10:21:23;26.90;;;21.10;;
75429;SDS011;64127;51.488;5.462;2023-02-15T10:24:23;24.63;;;20.80;;
75429;SDS011;64127;51.488;5.462;2023-02-15T10:27:26;26.87;;;21.30;;
75429;SDS011;64127;51.488;5.462;2023-02-15T10:30:10;25.83;;;21.43;;
75429;SDS011;64127;51.488;5.462;2023-02-15T10:50:55;25.97;;;20.37;;
75429;SDS011;64127;51.488;5.462;2023-02-15T10:53:40;26.00;;;21.13;;
75429;SDS011;64127;51.488;5.462;2023-02-15T10:59:44;24.87;;;20.10;;
75429;SDS011;64127;51.488;5.462;2023-02-15T11:08:54;24.37;;;19.07;;
75429;SDS011;64127;51.488;5.462;2023-02-15T11:11:37;23.40;;;19.47;;
75429;SDS011;64127;51.488;5.462;2023-02-15T11:14:18;26.00;;;18.90;;
75429;SDS011;64127;51.488;5.462;2023-02-15T11:17:33;25.90;;;21.75;;
75429;SDS011;64127;51.488;5.462;2023-02-15T11:22:55;23.07;;;19.70;;
75429;SDS011;64127;51.488;5.462;2023-02-15T11:25:30;24.93;;;20.63;;
75429;SDS011;64127;51.488;5.462;2023-02-15T11:28:06;24.27;;;19.73;;
75429;SDS011;64127;51.488;5.462;2023-02-15T11:30:54;24.50;;;20.00;;
75429;SDS011;64127;51.488;5.462;2023-02-15T11:33:34;24.17;;;19.73;;
75429;SDS011;64127;51.488;5.462;2023-02-15T11:36:15;24.37;;;19.97;;
75429;SDS011;64127;51.488;5.462;2023-02-15T11:39:03;25.03;;;20.77;;
75429;SDS011;64127;51.488;5.462;2023-02-15T11:41:46;26.60;;;20.67;;
75429;SDS011;64127;51.488;5.462;2023-02-15T11:44:26;25.17;;;20.20;;
75429;SDS011;64127;51.488;5.462;2023-02-15T11:47:08;28.10;;;20.87;;
75429;SDS011;64127;51.488;5.462;2023-02-15T11:49:43;28.13;;;20.50;;
75429;SDS011;64127;51.488;5.462;2023-02-15T11:52:17;24.93;;;20.53;;
75429;SDS011;64127;51.488;5.462;2023-02-15T11:54:50;27.07;;;19.80;;
75429;SDS011;64127;51.488;5.462;2023-02-15T11:57:26;26.90;;;20.33;;
75429;SDS011;64127;51.488;5.462;2023-02-15T12:00:10;25.07;;;21.00;;
75429;SDS011;64127;51.488;5.462;2023-02-15T12:03:13;26.90;;;20.53;;
75429;SDS011;64127;51.488;5.462;2023-02-15T12:06:01;25.20;;;19.77;;
75429;SDS011;64127;51.488;5.462;2023-02-15T12:08:37;24.63;;;20.13;;
75429;SDS011;64127;51.488;5.462;2023-02-15T12:11:17;23.20;;;19.53;;
75429;SDS011;64127;51.488;5.462;2023-02-15T12:14:01;26.23;;;20.60;;
75429;SDS011;64127;51.488;5.462;2023-02-15T12:19:38;29.57;;;20.47;;
75429;SDS011;64127;51.488;5.462;2023-02-15T12:22:45;25.60;;;20.70;;
75429;SDS011;64127;51.488;5.462;2023-02-15T12:25:31;24.47;;;20.23;;
75429;SDS011;64127;51.488;5.462;2023-02-15T12:30:56;25.10;;;19.93;;
75429;SDS011;64127;51.488;5.462;2023-02-15T12:33:39;23.70;;;20.43;;
75429;SDS011;64127;51.488;5.462;2023-02-15T12:36:21;25.37;;;20.00;;
75429;SDS011;64127;51.488;5.462;2023-02-15T12:44:28;24.63;;;19.50;;
75429;SDS011;64127;51.488;5.462;2023-02-15T12:47:05;24.57;;;19.67;;
75429;SDS011;64127;51.488;5.462;2023-02-15T12:52:49;23.80;;;19.03;;
75429;SDS011;64127;51.488;5.462;2023-02-15T12:55:36;21.53;;;17.63;;
75429;SDS011;64127;51.488;5.462;2023-02-15T12:58:16;23.50;;;19.27;;
75429;SDS011;64127;51.488;5.462;2023-02-15T13:04:00;27.60;;;19.50;;
75429;SDS011;64127;51.488;5.462;2023-02-15T13:06:36;25.30;;;19.13;;
75429;SDS011;64127;51.488;5.462;2023-02-15T13:09:25;23.83;;;19.50;;
75429;SDS011;64127;51.488;5.462;2023-02-15T13:12:09;25.77;;;19.27;;
75429;SDS011;64127;51.488;5.462;2023-02-15T13:14:48;25.00;;;19.10;;
75429;SDS011;64127;51.488;5.462;2023-02-15T13:17:24;26.33;;;18.93;;
75429;SDS011;64127;51.488;5.462;2023-02-15T13:20:06;23.80;;;18.67;;
75429;SDS011;64127;51.488;5.462;2023-02-15T13:22:51;24.97;;;19.80;;
75429;SDS011;64127;51.488;5.462;2023-02-15T13:25:42;25.27;;;19.97;;
75429;SDS011;64127;51.488;5.462;2023-02-15T13:28:22;25.70;;;19.55;;
75429;SDS011;64127;51.488;5.462;2023-02-15T13:31:24;23.53;;;18.93;;
75429;SDS011;64127;51.488;5.462;2023-02-15T13:37:07;24.93;;;19.27;;
75429;SDS011;64127;51.488;5.462;2023-02-15T13:39:54;25.20;;;19.70;;
75429;SDS011;64127;51.488;5.462;2023-02-15T13:42:49;26.47;;;18.97;;
75429;SDS011;64127;51.488;5.462;2023-02-15T13:45:42;24.43;;;18.70;;
75429;SDS011;64127;51.488;5.462;2023-02-15T13:51:24;24.17;;;18.67;;
75429;SDS011;64127;51.488;5.462;2023-02-15T14:14:59;25.23;;;18.60;;
75429;SDS011;64127;51.488;5.462;2023-02-15T14:21:05;26.73;;;19.17;;
75429;SDS011;64127;51.488;5.462;2023-02-15T14:27:13;25.90;;;18.93;;
75429;SDS011;64127;51.488;5.462;2023-02-15T14:29:56;27.43;;;20.13;;
75429;SDS011;64127;51.488;5.462;2023-02-15T14:32:36;27.60;;;19.90;;
75429;SDS011;64127;51.488;5.462;2023-02-15T14:35:23;24.17;;;19.20;;
75429;SDS011;64127;51.488;5.462;2023-02-15T14:47:07;25.07;;;20.17;;
75429;SDS011;64127;51.488;5.462;2023-02-15T14:53:20;28.00;;;21.63;;
75429;SDS011;64127;51.488;5.462;2023-02-15T15:01:31;26.73;;;20.10;;
75429;SDS011;64127;51.488;5.462;2023-02-15T15:04:06;28.13;;;21.60;;
75429;SDS011;64127;51.488;5.462;2023-02-15T15:07:23;24.33;;;20.33;;
75429;SDS011;64127;51.488;5.462;2023-02-15T15:10:33;27.17;;;21.23;;
75429;SDS011;64127;51.488;5.462;2023-02-15T15:19:11;25.77;;;20.07;;
75429;SDS011;64127;51.488;5.462;2023-02-15T15:50:42;25.60;;;20.97;;
75429;SDS011;64127;51.488;5.462;2023-02-15T15:53:22;25.97;;;20.07;;
75429;SDS011;64127;51.488;5.462;2023-02-15T15:55:59;26.20;;;19.87;;
75429;SDS011;64127;51.488;5.462;2023-02-15T15:58:40;26.00;;;20.13;;
75429;SDS011;64127;51.488;5.462;2023-02-15T16:01:34;27.83;;;20.07;;
75429;SDS011;64127;51.488;5.462;2023-02-15T16:04:14;27.30;;;20.43;;
75429;SDS011;64127;51.488;5.462;2023-02-15T16:09:59;27.67;;;21.97;;
75429;SDS011;64127;51.488;5.462;2023-02-15T16:12:35;24.07;;;20.60;;
75429;SDS011;64127;51.488;5.462;2023-02-15T16:15:14;25.60;;;20.50;;
75429;SDS011;64127;51.488;5.462;2023-02-15T16:17:57;26.53;;;20.40;;
75429;SDS011;64127;51.488;5.462;2023-02-15T16:20:32;27.40;;;20.53;;
75429;SDS011;64127;51.488;5.462;2023-02-15T16:26:09;28.17;;;20.73;;
75429;SDS011;64127;51.488;5.462;2023-02-15T16:28:54;26.50;;;20.27;;
75429;SDS011;64127;51.488;5.462;2023-02-15T16:31:26;25.27;;;20.93;;
75429;SDS011;64127;51.488;5.462;2023-02-15T16:33:58;25.00;;;20.70;;
75429;SDS011;64127;51.488;5.462;2023-02-15T16:36:30;24.33;;;19.93;;
75429;SDS011;64127;51.488;5.462;2023-02-15T16:39:06;25.77;;;19.60;;
75429;SDS011;64127;51.488;5.462;2023-02-15T16:41:47;25.83;;;20.30;;
75429;SDS011;64127;51.488;5.462;2023-02-15T16:44:26;25.70;;;20.17;;
75429;SDS011;64127;51.488;5.462;2023-02-15T16:47:01;27.03;;;21.13;;
75429;SDS011;64127;51.488;5.462;2023-02-15T16:49:33;25.80;;;20.37;;
75429;SDS011;64127;51.488;5.462;2023-02-15T16:52:06;30.67;;;21.13;;
75429;SDS011;64127;51.488;5.462;2023-02-15T16:54:39;26.90;;;20.70;;
75429;SDS011;64127;51.488;5.462;2023-02-15T16:57:18;25.53;;;20.60;;
75429;SDS011;64127;51.488;5.462;2023-02-15T17:00:07;26.33;;;20.47;;
75429;SDS011;64127;51.488;5.462;2023-02-15T17:02:53;26.30;;;20.47;;
75429;SDS011;64127;51.488;5.462;2023-02-15T17:05:44;26.97;;;21.83;;
75429;SDS011;64127;51.488;5.462;2023-02-15T17:11:17;27.53;;;23.43;;
75429;SDS011;64127;51.488;5.462;2023-02-15T17:14:10;29.40;;;23.77;;
75429;SDS011;64127;51.488;5.462;2023-02-15T17:16:47;28.27;;;22.17;;
75429;SDS011;64127;51.488;5.462;2023-02-15T17:19:32;27.43;;;21.63;;
75429;SDS011;64127;51.488;5.462;2023-02-15T17:22:25;26.50;;;21.73;;
75429;SDS011;64127;51.488;5.462;2023-02-15T17:25:01;29.60;;;25.03;;
75429;SDS011;64127;51.488;5.462;2023-02-15T17:27:35;32.63;;;25.47;;
75429;SDS011;64127;51.488;5.462;2023-02-15T17:30:13;31.53;;;24.57;;
75429;SDS011;64127;51.488;5.462;2023-02-15T17:32:53;42.80;;;36.03;;
75429;SDS011;64127;51.488;5.462;2023-02-15T17:35:31;37.80;;;31.43;;
75429;SDS011;64127;51.488;5.462;2023-02-15T17:38:17;33.83;;;26.63;;
75429;SDS011;64127;51.488;5.462;2023-02-15T17:40:51;30.80;;;26.23;;
75429;SDS011;64127;51.488;5.462;2023-02-15T17:43:24;31.80;;;24.77;;
75429;SDS011;64127;51.488;5.462;2023-02-15T17:45:56;32.73;;;24.50;;
75429;SDS011;64127;51.488;5.462;2023-02-15T17:48:36;31.20;;;24.43;;
75429;SDS011;64127;51.488;5.462;2023-02-15T17:51:12;29.87;;;23.63;;
75429;SDS011;64127;51.488;5.462;2023-02-15T17:53:46;31.90;;;24.47;;
75429;SDS011;64127;51.488;5.462;2023-02-15T17:56:38;33.47;;;24.83;;
75429;SDS011;64127;51.488;5.462;2023-02-15T17:59:10;33.57;;;24.43;;
75429;SDS011;64127;51.488;5.462;2023-02-15T18:01:47;34.00;;;25.73;;
75429;SDS011;64127;51.488;5.462;2023-02-15T18:04:39;32.53;;;25.10;;
75429;SDS011;64127;51.488;5.462;2023-02-15T18:07:30;30.23;;;25.20;;
75429;SDS011;64127;51.488;5.462;2023-02-15T18:10:20;30.10;;;24.97;;
75429;SDS011;64127;51.488;5.462;2023-02-15T18:13:11;32.87;;;25.60;;
75429;SDS011;64127;51.488;5.462;2023-02-15T18:15:43;39.97;;;26.63;;
75429;SDS011;64127;51.488;5.462;2023-02-15T18:18:15;30.13;;;25.27;;
75429;SDS011;64127;51.488;5.462;2023-02-15T18:20:47;31.27;;;25.97;;
75429;SDS011;64127;51.488;5.462;2023-02-15T18:23:19;34.60;;;26.27;;
75429;SDS011;64127;51.488;5.462;2023-02-15T18:25:51;33.13;;;26.50;;
75429;SDS011;64127;51.488;5.462;2023-02-15T18:28:23;36.40;;;28.88;;
75429;SDS011;64127;51.488;5.462;2023-02-15T18:30:55;37.47;;;29.03;;
75429;SDS011;64127;51.488;5.462;2023-02-15T18:33:31;34.37;;;27.53;;
75429;SDS011;64127;51.488;5.462;2023-02-15T18:36:04;34.10;;;28.53;;
75429;SDS011;64127;51.488;5.462;2023-02-15T18:38:42;38.00;;;30.47;;
75429;SDS011;64127;51.488;5.462;2023-02-15T18:41:15;36.93;;;29.93;;
75429;SDS011;64127;51.488;5.462;2023-02-15T18:43:50;35.80;;;29.50;;
75429;SDS011;64127;51.488;5.462;2023-02-15T18:46:24;35.80;;;29.37;;
75429;SDS011;64127;51.488;5.462;2023-02-15T18:48:56;34.90;;;28.63;;
75429;SDS011;64127;51.488;5.462;2023-02-15T18:51:28;32.43;;;27.10;;